createdAt,value
2018-04-02T00:00:49.045Z,93.27
2018-04-02T00:01:49.055Z,93.84
2018-04-02T00:02:49.074Z,93.70
2018-04-02T00:03:49.079Z,94.37
2018-04-02T00:04:49.095Z,94.37
2018-04-02T00:05:49.109Z,94.46
2018-04-02T00:06:49.118Z,94.46
2018-04-02T00:07:49.137Z,94.27
2018-04-02T00:08:49.198Z,94.08
2018-04-02T00:09:49.159Z,93.99
2018-04-02T00:10:49.170Z,94.46
2018-04-02T00:11:49.184Z,94.18
2018-04-02T00:12:49.201Z,94.46
2018-04-02T00:13:49.208Z,93.80
2018-04-02T00:14:49.227Z,93.60
2018-04-02T00:15:49.287Z,93.51
2018-04-02T00:16:49.248Z,93.51
2018-04-02T00:17:49.264Z,93.70
2018-04-02T00:18:49.272Z,93.41
2018-04-02T00:19:49.285Z,93.51
2018-04-02T00:20:49.299Z,93.41
2018-04-02T00:21:49.311Z,93.60
2018-04-02T00:22:49.325Z,93.41
2018-04-02T00:23:49.435Z,93.51
2018-04-02T00:24:49.349Z,93.41
2018-04-02T00:25:49.362Z,93.41
2018-04-02T00:26:49.377Z,93.32
2018-04-02T00:27:49.390Z,93.70
2018-04-02T00:28:49.401Z,93.99
2018-04-02T00:29:49.413Z,94.18
2018-04-02T00:30:49.425Z,94.93
2018-04-02T00:31:49.437Z,94.93
2018-04-02T00:32:49.454Z,95.12
2018-04-02T00:33:49.462Z,94.74
2018-04-02T00:34:49.475Z,94.27
2018-04-02T00:35:49.485Z,94.37
2018-04-02T00:36:49.499Z,94.46
2018-04-02T00:37:49.512Z,94.18
2018-04-02T00:38:49.525Z,93.99
2018-04-02T00:39:49.538Z,94.37
2018-04-02T00:40:49.548Z,94.08
2018-04-02T00:41:49.563Z,94.56
2018-04-02T00:42:49.574Z,94.56
2018-04-02T00:43:49.588Z,95.03
2018-04-02T00:44:49.599Z,94.84
2018-04-02T00:45:49.613Z,94.56
2018-04-02T00:46:49.629Z,94.27
2018-04-02T00:47:49.688Z,94.65
2018-04-02T00:48:50.032Z,95.12
2018-04-02T00:49:49.661Z,95.22
2018-04-02T00:50:49.675Z,95.03
2018-04-02T00:51:49.693Z,95.12
2018-04-02T00:52:49.700Z,95.89
2018-04-02T00:53:49.813Z,95.98
2018-04-02T00:54:49.727Z,95.79
2018-04-02T00:55:49.740Z,94.93
2018-04-02T00:56:49.752Z,95.70
2018-04-02T00:57:49.766Z,95.89
2018-04-02T00:58:49.778Z,95.70
2018-04-02T00:59:49.792Z,95.79
2018-04-02T01:00:49.802Z,95.89
2018-04-02T01:01:49.817Z,95.70
2018-04-02T01:02:49.829Z,95.60
2018-04-02T01:03:49.870Z,95.89
2018-04-02T01:04:49.855Z,96.08
2018-04-02T01:05:49.869Z,95.98
2018-04-02T01:06:49.880Z,95.89
2018-04-02T01:07:49.900Z,95.89
2018-04-02T01:08:49.905Z,96.08
2018-04-02T01:09:49.917Z,95.89
2018-04-02T01:10:49.929Z,96.64
2018-04-02T01:11:49.949Z,96.26
2018-04-02T01:12:49.957Z,96.64
2018-04-02T01:13:49.968Z,96.26
2018-04-02T01:14:49.984Z,96.08
2018-04-02T01:15:49.993Z,95.79
2018-04-02T01:16:50.013Z,95.60
2018-04-02T01:17:50.019Z,95.03
2018-04-02T01:18:50.032Z,94.93
2018-04-02T01:19:50.047Z,95.60
2018-04-02T01:21:50.094Z,96.17
2018-04-02T01:22:50.082Z,96.17
2018-04-02T01:23:50.095Z,96.36
2018-04-02T01:24:50.111Z,96.83
2018-04-02T01:25:50.131Z,96.45
2018-04-02T01:26:50.133Z,96.55
2018-04-02T01:27:50.144Z,96.83
2018-04-02T01:28:50.165Z,96.36
2018-04-02T01:29:50.174Z,95.79
2018-04-02T01:30:50.185Z,95.31
2018-04-02T01:31:50.200Z,95.12
2018-04-02T01:32:50.212Z,95.03
2018-04-02T01:33:50.225Z,94.93
2018-04-02T01:34:50.289Z,94.27
2018-04-02T01:35:50.250Z,94.18
2018-04-02T01:36:50.260Z,94.08
2018-04-02T01:37:50.279Z,94.56
2018-04-02T01:38:50.290Z,94.18
2018-04-02T01:39:50.300Z,93.99
2018-04-02T01:40:50.317Z,94.74
2018-04-02T01:41:50.327Z,94.27
2018-04-02T01:42:50.350Z,94.56
2018-04-02T01:43:50.351Z,93.99
2018-04-02T01:44:50.366Z,94.27
2018-04-02T01:45:50.395Z,94.27
2018-04-02T01:46:50.393Z,94.46
2018-04-02T01:47:50.402Z,94.56
2018-04-02T01:48:50.416Z,94.56
2018-04-02T01:49:50.430Z,94.18
2018-04-02T01:50:50.444Z,94.74
2018-04-02T01:51:50.509Z,94.46
2018-04-02T01:52:50.467Z,94.27
2018-04-02T01:53:50.498Z,94.18
2018-04-02T01:54:50.493Z,94.27
2018-04-02T01:55:50.509Z,93.99
2018-04-02T01:56:50.525Z,94.08
2018-04-02T01:57:50.538Z,94.18
2018-04-02T01:58:50.543Z,93.32
2018-04-02T01:59:50.555Z,93.41
2018-04-02T02:00:50.573Z,93.51
2018-04-02T02:01:50.584Z,93.89
2018-04-02T02:02:50.596Z,93.99
2018-04-02T02:03:50.608Z,94.27
2018-04-02T02:04:50.620Z,94.27
2018-04-02T02:05:50.638Z,94.18
2018-04-02T02:06:50.646Z,93.51
2018-04-02T02:07:50.658Z,93.80
2018-04-02T02:08:50.672Z,92.28
2018-04-02T02:09:50.685Z,92.47
2018-04-02T02:10:50.697Z,92.37
2018-04-02T02:11:50.728Z,91.52
2018-04-02T02:12:50.722Z,90.76
2018-04-02T02:13:50.737Z,91.14
2018-04-02T02:14:50.749Z,90.76
2018-04-02T02:15:50.762Z,91.71
2018-04-02T02:16:50.779Z,91.66
2018-04-02T02:17:50.788Z,91.94
2018-04-02T02:18:50.807Z,91.47
2018-04-02T02:19:50.814Z,92.71
2018-04-02T02:20:50.824Z,92.14
2018-04-02T02:21:50.842Z,91.94
2018-04-02T02:22:50.904Z,92.52
2018-04-02T02:23:50.932Z,91.19
2018-04-02T02:24:50.882Z,91.66
2018-04-02T02:25:50.890Z,92.28
2018-04-02T02:26:50.905Z,91.56
2018-04-02T02:27:50.917Z,92.23
2018-04-02T02:28:50.929Z,92.14
2018-04-02T02:29:50.945Z,91.61
2018-04-02T02:30:50.957Z,92.66
2018-04-02T02:31:50.972Z,92.47
2018-04-02T02:32:50.991Z,92.66
2018-04-02T02:33:50.995Z,92.47
2018-04-02T02:34:51.014Z,92.47
2018-04-02T02:35:51.017Z,92.18
2018-04-02T02:36:51.031Z,92.09
2018-04-02T02:37:51.044Z,91.89
2018-04-02T02:38:51.056Z,91.75
2018-04-02T02:39:51.076Z,91.71
2018-04-02T02:40:51.083Z,91.61
2018-04-02T02:41:51.095Z,92.37
2018-04-02T02:42:51.109Z,92.28
2018-04-02T02:43:51.118Z,91.71
2018-04-02T02:44:51.133Z,92.09
2018-04-02T02:45:51.145Z,91.89
2018-04-02T02:46:51.159Z,91.42
2018-04-02T02:47:51.175Z,91.28
2018-04-02T02:48:51.184Z,91.00
2018-04-02T02:49:51.202Z,91.19
2018-04-02T02:50:51.210Z,91.09
2018-04-02T02:51:51.226Z,91.38
2018-04-02T02:52:51.240Z,91.09
2018-04-02T02:53:51.249Z,91.38
2018-04-02T02:54:51.266Z,91.38
2018-04-02T02:55:51.277Z,91.38
2018-04-02T02:56:51.381Z,91.19
2018-04-02T02:57:51.501Z,90.90
2018-04-02T02:58:51.312Z,91.38
2018-04-02T02:59:51.324Z,91.56
2018-04-02T03:00:51.338Z,91.56
2018-04-02T03:01:51.349Z,91.19
2018-04-02T03:02:51.365Z,92.14
2018-04-02T03:03:51.374Z,91.56
2018-04-02T03:04:51.390Z,91.56
2018-04-02T03:05:51.403Z,91.85
2018-04-02T03:06:51.415Z,91.19
2018-04-02T03:07:51.420Z,91.00
2018-04-02T03:08:51.432Z,91.28
2018-04-02T03:09:51.442Z,91.19
2018-04-02T03:10:51.457Z,91.38
2018-04-02T03:11:51.466Z,91.38
2018-04-02T03:12:51.480Z,91.00
2018-04-02T03:13:51.493Z,91.09
2018-04-02T03:14:51.504Z,91.28
2018-04-02T03:15:51.521Z,90.81
2018-04-02T03:16:51.532Z,91.09
2018-04-02T03:17:51.548Z,91.09
2018-04-02T03:18:51.556Z,92.14
2018-04-02T03:19:51.569Z,91.56
2018-04-02T03:20:51.581Z,91.38
2018-04-02T03:21:51.599Z,91.66
2018-04-02T03:22:51.608Z,91.38
2018-04-02T03:23:51.623Z,91.47
2018-04-02T03:24:51.633Z,91.56
2018-04-02T03:25:51.650Z,91.28
2018-04-02T03:26:51.660Z,91.19
2018-04-02T03:27:51.723Z,91.19
2018-04-02T03:28:51.682Z,90.81
2018-04-02T03:29:51.699Z,90.90
2018-04-02T03:30:51.710Z,91.28
2018-04-02T03:31:51.720Z,92.23
2018-04-02T03:32:51.736Z,91.28
2018-04-02T03:33:51.744Z,91.66
2018-04-02T03:34:51.758Z,92.04
2018-04-02T03:35:51.771Z,91.28
2018-04-02T03:36:51.782Z,91.19
2018-04-02T03:37:51.797Z,91.28
2018-04-02T03:38:51.815Z,91.47
2018-04-02T03:39:51.820Z,91.56
2018-04-02T03:40:51.834Z,92.52
2018-04-02T03:41:51.848Z,92.42
2018-04-02T03:42:51.864Z,93.56
2018-04-02T03:43:51.872Z,93.56
2018-04-02T03:44:51.890Z,94.32
2018-04-02T03:45:51.897Z,95.17
2018-04-02T03:46:51.918Z,95.55
2018-04-02T03:47:51.920Z,95.84
2018-04-02T03:48:51.939Z,96.22
2018-04-02T03:49:51.948Z,96.22
2018-04-02T03:50:51.959Z,96.22
2018-04-02T03:51:51.975Z,96.26
2018-04-02T03:52:51.986Z,97.12
2018-04-02T03:53:52.005Z,96.26
2018-04-02T03:54:52.010Z,96.88
2018-04-02T03:55:52.032Z,97.31
2018-04-02T03:56:52.081Z,96.83
2018-04-02T03:57:52.064Z,96.36
2018-04-02T03:58:52.067Z,96.64
2018-04-02T03:59:52.145Z,96.64
2018-04-02T04:00:52.087Z,97.02
2018-04-02T04:01:52.104Z,96.74
2018-04-02T04:02:52.120Z,96.26
2018-04-02T04:03:52.129Z,96.26
2018-04-02T04:04:52.135Z,96.22
2018-04-02T04:05:52.150Z,97.07
2018-04-02T04:06:52.161Z,96.69
2018-04-02T04:07:52.175Z,97.26
2018-04-02T04:08:52.185Z,97.07
2018-04-02T04:09:52.207Z,97.64
2018-04-02T04:10:52.216Z,97.64
2018-04-02T04:11:52.229Z,97.17
2018-04-02T04:12:52.235Z,97.26
2018-04-02T04:13:52.252Z,96.59
2018-04-02T04:14:52.265Z,96.69
2018-04-02T04:15:52.277Z,96.93
2018-04-02T04:16:52.288Z,96.74
2018-04-02T04:17:52.302Z,96.83
2018-04-02T04:18:52.312Z,96.50
2018-04-02T04:19:52.323Z,97.26
2018-04-02T04:20:52.382Z,96.26
2018-04-02T04:21:52.349Z,96.03
2018-04-02T04:22:52.362Z,96.12
2018-04-02T04:23:52.380Z,96.88
2018-04-02T04:24:52.392Z,96.31
2018-04-02T04:25:52.398Z,96.31
2018-04-02T04:26:52.411Z,96.50
2018-04-02T04:27:52.427Z,96.12
2018-04-02T04:28:52.438Z,95.84
2018-04-02T04:29:52.448Z,96.31
2018-04-02T04:30:52.578Z,96.59
2018-04-02T04:31:52.592Z,97.07
2018-04-02T04:32:52.489Z,97.26
2018-04-02T04:33:52.498Z,96.69
2018-04-02T04:34:52.513Z,97.07
2018-04-02T04:35:52.523Z,97.07
2018-04-02T04:36:52.542Z,97.64
2018-04-02T04:37:52.548Z,97.55
2018-04-02T04:38:52.561Z,97.74
2018-04-02T04:39:52.573Z,97.55
2018-04-02T04:40:52.584Z,97.64
2018-04-02T04:41:52.597Z,97.64
2018-04-02T04:42:52.609Z,98.02
2018-04-02T04:43:52.622Z,97.92
2018-04-02T04:44:52.634Z,98.49
2018-04-02T04:45:52.648Z,97.74
2018-04-02T04:46:52.659Z,97.74
2018-04-02T04:47:52.674Z,97.83
2018-04-02T04:48:52.738Z,97.83
2018-04-02T04:49:52.697Z,97.74
2018-04-02T04:50:52.715Z,97.92
2018-04-02T04:51:52.721Z,97.64
2018-04-02T04:52:52.736Z,98.02
2018-04-02T04:53:52.752Z,98.59
2018-04-02T04:54:52.759Z,98.78
2018-04-02T04:55:52.775Z,98.97
2018-04-02T04:56:52.783Z,98.78
2018-04-02T04:57:52.796Z,98.40
2018-04-02T04:58:52.818Z,98.02
2018-04-02T04:59:52.819Z,98.30
2018-04-02T05:00:52.834Z,98.21
2018-04-02T05:01:52.847Z,97.64
2018-04-02T05:02:52.910Z,97.92
2018-04-02T05:03:52.981Z,98.87
2018-04-02T05:04:52.881Z,98.78
2018-04-02T05:05:52.895Z,98.30
2018-04-02T05:06:52.906Z,99.06
2018-04-02T05:07:52.922Z,99.06
2018-04-02T05:08:52.930Z,98.87
2018-04-02T05:09:52.948Z,98.49
2018-04-02T05:10:52.956Z,99.16
2018-04-02T05:11:53.088Z,99.26
2018-04-02T05:12:52.981Z,99.82
2018-04-02T05:13:52.998Z,98.68
2018-04-02T05:14:53.108Z,98.68
2018-04-02T05:15:53.023Z,98.68
2018-04-02T05:16:53.029Z,98.97
2018-04-02T05:17:53.044Z,98.97
2018-04-02T05:18:53.058Z,99.16
2018-04-02T05:19:53.065Z,99.63
2018-04-02T05:20:53.079Z,99.82
2018-04-02T05:21:53.091Z,99.63
2018-04-02T05:22:53.153Z,99.73
2018-04-02T05:23:53.115Z,99.99
2018-04-02T05:24:53.127Z,99.82
2018-04-02T05:25:53.139Z,99.99
2018-04-02T05:26:53.155Z,99.91
2018-04-02T05:27:53.173Z,99.54
2018-04-02T05:28:53.175Z,99.91
2018-04-02T05:29:53.190Z,99.44
2018-04-02T05:30:53.204Z,99.35
2018-04-02T05:31:53.213Z,99.54
2018-04-02T05:32:53.224Z,99.44
2018-04-02T05:33:53.238Z,99.63
2018-04-02T05:34:53.253Z,99.54
2018-04-02T05:35:53.576Z,99.54
2018-04-02T05:36:53.279Z,99.99
2018-04-02T05:37:53.288Z,99.99
2018-04-02T05:38:53.301Z,99.73
2018-04-02T05:39:53.316Z,99.99
2018-04-02T05:40:53.324Z,99.82
2018-04-02T05:41:53.335Z,99.99
2018-04-02T05:42:53.349Z,99.99
2018-04-02T05:43:53.361Z,99.99
2018-04-02T05:44:53.375Z,99.99
2018-04-02T05:45:53.390Z,99.99
2018-04-02T05:46:53.397Z,99.99
2018-04-02T05:47:53.511Z,99.99
2018-04-02T05:48:53.425Z,99.99
2018-04-02T05:49:53.433Z,99.99
2018-04-02T05:50:53.446Z,99.99
2018-04-02T05:51:53.464Z,99.99
2018-04-02T05:52:53.470Z,99.99
2018-04-02T05:53:53.489Z,99.99
2018-04-02T05:54:53.494Z,99.99
2018-04-02T05:55:53.507Z,99.99
2018-04-02T05:56:53.526Z,99.99
2018-04-02T05:57:53.535Z,99.99
2018-04-02T05:58:53.543Z,99.99
2018-04-02T05:59:53.557Z,99.99
2018-04-02T06:00:53.569Z,99.99
2018-04-02T06:01:53.584Z,99.99
2018-04-02T06:02:53.617Z,99.99
2018-04-02T06:03:53.616Z,99.99
2018-04-02T06:04:53.621Z,99.99
2018-04-02T06:05:53.940Z,99.99
2018-04-02T06:06:53.768Z,99.99
2018-04-02T06:07:53.657Z,99.99
2018-04-02T06:08:53.668Z,99.99
2018-04-02T06:09:53.681Z,99.99
2018-04-02T06:10:53.693Z,99.99
2018-04-02T06:11:53.710Z,99.73
2018-04-02T06:12:53.722Z,99.91
2018-04-02T06:13:53.730Z,99.99
2018-04-02T06:14:53.744Z,99.73
2018-04-02T06:15:53.754Z,99.99
2018-04-02T06:16:53.767Z,99.73
2018-04-02T06:17:53.781Z,99.99
2018-04-02T06:18:53.795Z,99.99
2018-04-02T06:19:53.812Z,99.91
2018-04-02T06:20:53.820Z,99.99
2018-04-02T06:21:53.832Z,99.91
2018-04-02T06:22:53.841Z,99.63
2018-04-02T06:23:53.854Z,99.49
2018-04-02T06:24:53.866Z,99.06
2018-04-02T06:25:53.879Z,98.92
2018-04-02T06:26:53.897Z,98.78
2018-04-02T06:27:53.903Z,98.78
2018-04-02T06:28:53.914Z,98.87
2018-04-02T06:29:53.930Z,99.11
2018-04-02T06:30:53.944Z,99.82
2018-04-02T06:31:53.970Z,99.02
2018-04-02T06:32:53.965Z,98.49
2018-04-02T06:33:53.988Z,98.73
2018-04-02T06:34:53.993Z,98.64
2018-04-02T06:35:54.007Z,98.83
2018-04-02T06:36:54.058Z,98.35
2018-04-02T06:37:54.034Z,98.07
2018-04-02T06:38:54.117Z,98.26
2018-04-02T06:39:54.068Z,97.78
2018-04-02T06:40:54.084Z,98.16
2018-04-02T06:41:54.102Z,97.97
2018-04-02T06:42:54.094Z,98.16
2018-04-02T06:43:54.110Z,98.30
2018-04-02T06:44:54.119Z,98.54
2018-04-02T06:45:54.134Z,98.64
2018-04-02T06:46:54.147Z,98.26
2018-04-02T06:47:54.159Z,97.50
2018-04-02T06:48:54.172Z,97.41
2018-04-02T06:49:54.189Z,97.78
2018-04-02T06:50:54.206Z,97.50
2018-04-02T06:51:54.837Z,97.60
2018-04-02T06:52:54.260Z,97.78
2018-04-02T06:53:54.236Z,97.31
2018-04-02T06:54:54.249Z,97.50
2018-04-02T06:55:54.261Z,97.31
2018-04-02T06:56:54.280Z,97.78
2018-04-02T06:57:54.286Z,97.97
2018-04-02T06:58:54.307Z,98.26
2018-04-02T06:59:54.312Z,98.16
2018-04-02T07:00:54.344Z,98.26
2018-04-02T07:01:54.341Z,98.35
2018-04-02T07:02:54.354Z,97.78
2018-04-02T07:03:54.451Z,97.97
2018-04-02T07:04:54.383Z,98.26
2018-04-02T07:05:54.390Z,97.60
2018-04-02T07:06:54.413Z,97.69
2018-04-02T07:07:54.421Z,97.78
2018-04-02T07:08:54.478Z,97.69
2018-04-02T07:09:54.445Z,97.22
2018-04-02T07:10:54.490Z,96.74
2018-04-02T07:11:54.466Z,96.45
2018-04-02T07:12:54.525Z,96.26
2018-04-02T07:13:54.499Z,96.36
2018-04-02T07:14:54.507Z,96.64
2018-04-02T07:15:54.525Z,96.17
2018-04-02T07:16:54.532Z,96.17
2018-04-02T07:17:54.545Z,95.98
2018-04-02T07:18:54.560Z,96.26
2018-04-02T07:19:54.571Z,96.26
2018-04-02T07:20:54.583Z,96.55
2018-04-02T07:21:54.598Z,96.26
2018-04-02T07:22:54.612Z,96.08
2018-04-02T07:23:54.626Z,96.36
2018-04-02T07:24:54.636Z,95.98
2018-04-02T07:25:54.652Z,96.55
2018-04-02T07:26:54.661Z,96.08
2018-04-02T07:27:54.675Z,96.08
2018-04-02T07:28:54.687Z,95.70
2018-04-02T07:29:54.707Z,95.60
2018-04-02T07:30:54.712Z,95.98
2018-04-02T07:31:54.735Z,95.98
2018-04-02T07:32:54.753Z,96.26
2018-04-02T07:33:54.832Z,95.79
2018-04-02T07:34:54.765Z,95.51
2018-04-02T07:35:54.778Z,95.89
2018-04-02T07:36:54.789Z,95.79
2018-04-02T07:37:54.812Z,95.79
2018-04-02T07:38:54.818Z,96.08
2018-04-02T07:39:54.897Z,95.41
2018-04-02T07:40:54.864Z,95.51
2018-04-02T07:41:54.857Z,95.60
2018-04-02T07:42:54.872Z,95.27
2018-04-02T07:43:54.883Z,94.84
2018-04-02T07:44:54.909Z,95.08
2018-04-02T07:45:54.911Z,94.84
2018-04-02T07:46:54.924Z,94.60
2018-04-02T07:47:54.948Z,94.32
2018-04-02T07:48:54.951Z,94.23
2018-04-02T07:49:54.960Z,94.70
2018-04-02T07:50:54.969Z,94.23
2018-04-02T07:51:54.991Z,93.65
2018-04-02T07:52:54.997Z,93.18
2018-04-02T07:53:55.066Z,93.65
2018-04-02T07:54:55.024Z,93.27
2018-04-02T07:55:55.035Z,92.61
2018-04-02T07:56:55.056Z,92.51
2018-04-02T07:57:55.082Z,92.51
2018-04-02T07:58:55.078Z,92.32
2018-04-02T07:59:55.088Z,92.46
2018-04-02T08:00:55.110Z,91.89
2018-04-02T08:01:55.121Z,91.33
2018-04-02T08:02:55.268Z,91.52
2018-04-02T08:03:55.160Z,90.85
2018-04-02T08:04:55.159Z,90.66
2018-04-02T08:05:55.170Z,90.56
2018-04-02T08:06:55.182Z,90.19
2018-04-02T08:07:55.197Z,90.09
2018-04-02T08:08:55.213Z,89.71
2018-04-02T08:09:55.231Z,89.42
2018-04-02T08:10:55.247Z,89.14
2018-04-02T08:11:55.249Z,88.85
2018-04-02T08:12:55.263Z,89.23
2018-04-02T08:13:55.418Z,88.95
2018-04-02T08:14:55.301Z,89.04
2018-04-02T08:15:55.345Z,89.42
2018-04-02T08:16:55.322Z,89.04
2018-04-02T08:17:55.341Z,89.04
2018-04-02T08:18:55.349Z,88.19
2018-04-02T08:19:55.364Z,87.95
2018-04-02T08:20:55.374Z,87.85
2018-04-02T08:21:55.390Z,86.99
2018-04-02T08:22:55.484Z,86.80
2018-04-02T08:23:55.434Z,86.90
2018-04-02T08:24:55.434Z,86.90
2018-04-02T08:25:55.451Z,86.43
2018-04-02T08:26:55.455Z,86.52
2018-04-02T08:27:55.468Z,86.43
2018-04-02T08:28:55.485Z,86.90
2018-04-02T08:29:55.499Z,87.47
2018-04-02T08:30:55.511Z,87.09
2018-04-02T08:31:55.624Z,87.85
2018-04-02T08:32:55.545Z,87.09
2018-04-02T08:33:55.557Z,86.99
2018-04-02T08:34:55.571Z,87.09
2018-04-02T08:35:55.586Z,85.95
2018-04-02T08:36:55.599Z,86.43
2018-04-02T08:37:55.612Z,86.33
2018-04-02T08:38:55.678Z,86.33
2018-04-02T08:39:55.639Z,86.43
2018-04-02T08:40:55.651Z,86.33
2018-04-02T08:41:55.674Z,86.14
2018-04-02T08:42:55.687Z,86.47
2018-04-02T08:43:55.696Z,86.28
2018-04-02T08:44:55.714Z,86.76
2018-04-02T08:45:55.723Z,85.80
2018-04-02T08:46:55.737Z,85.14
2018-04-02T08:48:55.764Z,85.04
2018-04-02T08:49:55.781Z,84.95
2018-04-02T08:50:55.798Z,85.24
2018-04-02T08:51:55.809Z,85.71
2018-04-02T08:52:55.872Z,84.85
2018-04-02T08:53:55.836Z,84.66
2018-04-02T08:54:55.851Z,84.76
2018-04-02T08:55:55.865Z,84.38
2018-04-02T08:56:55.879Z,84.47
2018-04-02T08:57:55.905Z,84.56
2018-04-02T08:58:55.909Z,84.52
2018-04-02T08:59:55.936Z,83.85
2018-04-02T09:00:55.936Z,83.65
2018-04-02T09:01:55.948Z,83.81
2018-04-02T09:02:55.974Z,83.65
2018-04-02T09:03:55.985Z,83.47
2018-04-02T09:04:56.026Z,83.18
2018-04-02T09:05:56.009Z,83.37
2018-04-02T09:06:56.034Z,83.09
2018-04-02T09:07:56.036Z,82.90
2018-04-02T09:08:56.053Z,83.09
2018-04-02T09:09:56.066Z,82.80
2018-04-02T09:10:56.086Z,82.90
2018-04-02T09:11:56.095Z,82.32
2018-04-02T09:12:56.108Z,82.32
2018-04-02T09:13:56.126Z,81.95
2018-04-02T09:14:56.140Z,82.04
2018-04-02T09:15:56.152Z,81.37
2018-04-02T09:16:56.168Z,80.80
2018-04-02T09:17:56.182Z,80.90
2018-04-02T09:18:56.202Z,80.99
2018-04-02T09:19:56.216Z,81.09
2018-04-02T09:20:56.255Z,81.03
2018-04-02T09:21:56.241Z,80.55
2018-04-02T09:22:56.256Z,79.99
2018-04-02T09:23:56.267Z,79.66
2018-04-02T09:24:56.286Z,79.32
2018-04-02T09:25:56.298Z,79.70
2018-04-02T09:26:56.312Z,79.60
2018-04-02T09:27:56.327Z,78.94
2018-04-02T09:28:56.342Z,78.75
2018-04-02T09:29:56.365Z,77.89
2018-04-02T09:30:56.378Z,78.17
2018-04-02T09:31:56.400Z,78.85
2018-04-02T09:32:56.402Z,78.85
2018-04-02T09:33:56.415Z,78.08
2018-04-02T09:34:56.430Z,77.70
2018-04-02T09:35:56.451Z,77.80
2018-04-02T09:36:56.510Z,77.70
2018-04-02T09:37:56.505Z,78.08
2018-04-02T09:38:56.490Z,77.89
2018-04-02T09:39:56.505Z,77.42
2018-04-02T09:40:56.518Z,76.31
2018-04-02T09:41:56.535Z,76.12
2018-04-02T09:42:56.560Z,76.03
2018-04-02T09:43:56.562Z,75.26
2018-04-02T09:44:56.577Z,75.16
2018-04-02T09:45:56.592Z,75.55
2018-04-02T09:46:56.616Z,75.74
2018-04-02T09:47:56.623Z,75.64
2018-04-02T09:48:56.636Z,75.26
2018-04-02T09:49:56.656Z,74.88
2018-04-02T09:50:56.667Z,73.74
2018-04-02T09:51:56.684Z,72.97
2018-04-02T09:52:56.702Z,72.78
2018-04-02T09:53:57.022Z,72.78
2018-04-02T09:54:56.729Z,72.78
2018-04-02T09:55:56.745Z,72.88
2018-04-02T09:56:56.761Z,72.02
2018-04-02T09:57:56.777Z,72.41
2018-04-02T09:58:56.789Z,72.41
2018-04-02T09:59:56.804Z,72.50
2018-04-02T10:00:56.821Z,72.78
2018-04-02T10:01:56.833Z,72.82
2018-04-02T10:02:56.864Z,72.60
2018-04-02T10:03:56.864Z,72.88
2018-04-02T10:04:56.999Z,73.17
2018-04-02T10:05:56.899Z,73.83
2018-04-02T10:06:56.915Z,73.65
2018-04-02T10:07:56.925Z,73.93
2018-04-02T10:08:56.947Z,73.55
2018-04-02T10:09:56.997Z,73.65
2018-04-02T10:10:56.974Z,73.26
2018-04-02T10:11:56.984Z,73.87
2018-04-02T10:12:57.001Z,73.96
2018-04-02T10:13:57.017Z,71.96
2018-04-02T10:14:57.037Z,71.83
2018-04-02T10:15:57.048Z,72.41
2018-04-02T10:16:57.062Z,72.78
2018-04-02T10:17:57.082Z,72.78
2018-04-02T10:18:57.095Z,73.07
2018-04-02T10:19:57.111Z,72.50
2018-04-02T10:20:57.121Z,72.12
2018-04-02T10:21:57.141Z,72.50
2018-04-02T10:22:57.151Z,71.96
2018-04-02T10:23:57.269Z,71.68
2018-04-02T10:24:57.182Z,71.73
2018-04-02T10:25:57.199Z,71.93
2018-04-02T10:26:57.213Z,71.77
2018-04-02T10:27:57.245Z,71.77
2018-04-02T10:28:57.244Z,71.96
2018-04-02T10:29:57.312Z,71.87
2018-04-02T10:30:57.276Z,72.16
2018-04-02T10:31:57.291Z,71.58
2018-04-02T10:32:57.306Z,71.04
2018-04-02T10:33:57.321Z,70.86
2018-04-02T10:34:57.350Z,70.38
2018-04-02T10:35:57.354Z,69.87
2018-04-02T10:36:57.367Z,70.44
2018-04-02T10:37:57.382Z,70.53
2018-04-02T10:38:57.498Z,70.44
2018-04-02T10:39:57.414Z,71.11
2018-04-02T10:40:57.429Z,70.82
2018-04-02T10:41:57.444Z,70.00
2018-04-02T10:42:57.467Z,70.00
2018-04-02T10:43:57.522Z,69.62
2018-04-02T10:44:57.492Z,69.81
2018-04-02T10:45:57.505Z,70.00
2018-04-02T10:46:57.521Z,70.38
2018-04-02T10:47:57.537Z,69.04
2018-04-02T10:48:57.547Z,69.14
2018-04-02T10:49:57.578Z,69.33
2018-04-02T10:50:57.587Z,67.71
2018-04-02T10:51:57.607Z,67.52
2018-04-02T10:52:57.611Z,67.46
2018-04-02T10:53:57.646Z,67.93
2018-04-02T10:54:57.658Z,68.98
2018-04-02T10:55:57.658Z,67.36
2018-04-02T10:56:57.673Z,67.55
2018-04-02T10:57:57.687Z,67.55
2018-04-02T10:58:57.714Z,67.55
2018-04-02T10:59:57.742Z,67.55
2018-04-02T11:00:57.770Z,67.36
2018-04-02T11:01:57.750Z,66.69
2018-04-02T11:02:57.766Z,66.78
2018-04-02T11:03:57.788Z,67.17
2018-04-02T11:04:57.820Z,66.60
2018-04-02T11:05:57.813Z,66.98
2018-04-02T11:06:57.822Z,67.65
2018-04-02T11:07:57.835Z,67.07
2018-04-02T11:08:57.855Z,66.69
2018-04-02T11:09:57.874Z,66.69
2018-04-02T11:10:57.881Z,66.69
2018-04-02T11:11:57.914Z,66.41
2018-04-02T11:12:57.916Z,66.41
2018-04-02T11:13:57.928Z,66.69
2018-04-02T11:14:57.944Z,66.78
2018-04-02T11:15:57.959Z,66.60
2018-04-02T11:16:57.976Z,66.60
2018-04-02T11:17:58.020Z,65.93
2018-04-02T11:18:58.008Z,65.77
2018-04-02T11:19:58.022Z,65.93
2018-04-02T11:20:58.040Z,66.22
2018-04-02T11:21:58.054Z,66.22
2018-04-02T11:22:58.068Z,67.17
2018-04-02T11:23:58.084Z,67.55
2018-04-02T11:24:58.101Z,67.27
2018-04-02T11:25:58.116Z,66.78
2018-04-02T11:26:58.133Z,65.74
2018-04-02T11:27:58.154Z,66.12
2018-04-02T11:28:58.170Z,66.38
2018-04-02T11:29:58.179Z,67.46
2018-04-02T11:30:58.193Z,67.65
2018-04-02T11:31:58.259Z,66.98
2018-04-02T11:32:58.225Z,67.36
2018-04-02T11:33:58.246Z,67.74
2018-04-02T11:34:58.261Z,67.46
2018-04-02T11:35:58.274Z,67.74
2018-04-02T11:36:58.288Z,68.22
2018-04-02T11:37:58.312Z,68.51
2018-04-02T11:38:58.320Z,69.04
2018-04-02T11:39:58.334Z,69.52
2018-04-02T11:40:58.351Z,69.81
2018-04-02T11:41:58.366Z,70.47
2018-04-02T11:42:58.567Z,70.22
2018-04-02T11:43:58.527Z,72.00
2018-04-02T11:44:58.421Z,72.96
2018-04-02T11:45:58.432Z,73.33
2018-04-02T11:46:58.448Z,72.76
2018-04-02T11:47:58.459Z,73.91
2018-04-02T11:48:58.475Z,74.01
2018-04-02T11:49:58.494Z,73.85
2018-04-02T11:50:58.506Z,72.89
2018-04-02T11:51:58.522Z,73.08
2018-04-02T11:52:58.537Z,72.61
2018-04-02T11:53:58.557Z,71.37
2018-04-02T11:54:58.570Z,72.61
2018-04-02T11:55:58.584Z,71.59
2018-04-02T11:56:58.601Z,70.54
2018-04-02T11:57:58.617Z,69.78
2018-04-02T11:58:58.631Z,69.93
2018-04-02T11:59:58.646Z,69.93
2018-04-02T12:00:58.661Z,71.18
2018-04-02T12:01:58.683Z,71.18
2018-04-02T12:02:58.703Z,70.89
2018-04-02T12:03:58.730Z,71.46
2018-04-02T12:04:58.730Z,71.75
2018-04-02T12:05:58.754Z,71.75
2018-04-02T12:06:58.770Z,71.56
2018-04-02T12:07:58.772Z,71.56
2018-04-02T12:08:58.787Z,72.03
2018-04-02T12:09:58.805Z,71.75
2018-04-02T12:10:58.822Z,70.79
2018-04-02T12:11:58.834Z,69.37
2018-04-02T12:12:58.849Z,69.74
2018-04-02T12:13:58.876Z,69.08
2018-04-02T12:14:58.882Z,68.12
2018-04-02T12:15:58.999Z,66.78
2018-04-02T12:16:58.912Z,66.92
2018-04-02T12:17:58.932Z,65.96
2018-04-02T12:18:58.950Z,62.52
2018-04-02T12:19:58.958Z,60.81
2018-04-02T12:20:59.005Z,60.52
2018-04-02T12:21:58.990Z,58.58
2018-04-02T12:22:59.011Z,58.48
2018-04-02T12:23:59.021Z,59.53
2018-04-02T12:24:59.038Z,59.53
2018-04-02T12:25:59.057Z,59.95
2018-04-02T12:26:59.073Z,60.14
2018-04-02T12:27:59.084Z,59.09
2018-04-02T12:28:59.128Z,57.94
2018-04-02T12:29:59.121Z,58.70
2018-04-02T12:30:59.137Z,58.23
2018-04-02T12:31:59.149Z,58.73
2018-04-02T12:32:59.166Z,58.83
2018-04-02T12:33:59.179Z,58.45
2018-04-02T12:34:59.195Z,58.54
2018-04-02T12:35:59.215Z,58.45
2018-04-02T12:36:59.256Z,58.07
2018-04-02T12:37:59.246Z,58.16
2018-04-02T12:38:59.258Z,57.97
2018-04-02T12:39:59.273Z,59.34
2018-04-02T12:40:59.288Z,58.29
2018-04-02T12:41:59.306Z,56.67
2018-04-02T12:42:59.423Z,56.28
2018-04-02T12:43:59.338Z,55.52
2018-04-02T12:44:59.358Z,55.71
2018-04-02T12:45:59.372Z,54.85
2018-04-02T12:46:59.385Z,55.42
2018-04-02T12:47:59.405Z,54.27
2018-04-02T12:48:59.470Z,54.47
2018-04-02T12:49:59.436Z,53.70
2018-04-02T12:50:59.452Z,53.80
2018-04-02T12:51:59.471Z,54.27
2018-04-02T12:52:59.486Z,54.27
2018-04-02T12:53:59.498Z,53.80
2018-04-02T12:54:59.519Z,53.51